createdAt,value
2019-03-10T00:00:30.606Z,2.80
2019-03-10T00:01:30.532Z,2.50
2019-03-10T00:02:30.475Z,3.00
2019-03-10T00:03:30.414Z,2.70
2019-03-10T00:04:30.371Z,2.80
2019-03-10T00:05:30.358Z,2.60
2019-03-10T00:06:30.253Z,2.50
2019-03-10T00:07:30.197Z,2.50
2019-03-10T00:08:30.143Z,2.20
2019-03-10T00:09:30.093Z,2.50
2019-03-10T00:10:30.060Z,2.60
2019-03-10T00:11:29.980Z,2.50
2019-03-10T00:12:29.927Z,2.50
2019-03-10T00:13:29.864Z,2.40
2019-03-10T00:14:29.810Z,2.80
2019-03-10T00:15:29.787Z,2.70
2019-03-10T00:16:29.707Z,2.90
2019-03-10T00:17:29.647Z,2.80
2019-03-10T00:18:29.617Z,2.90
2019-03-10T00:19:29.538Z,2.40
2019-03-10T00:20:29.514Z,2.60
2019-03-10T00:21:29.424Z,2.40
2019-03-10T00:22:29.365Z,2.50
2019-03-10T00:23:29.322Z,2.40
2019-03-10T00:24:29.258Z,2.40
2019-03-10T00:25:29.234Z,2.50
2019-03-10T00:26:29.169Z,2.20
2019-03-10T00:27:29.098Z,2.40
2019-03-10T00:28:29.046Z,2.40
2019-03-10T00:29:28.996Z,2.20
2019-03-10T00:30:28.960Z,2.60
2019-03-10T00:31:28.881Z,2.70
2019-03-10T00:32:28.825Z,2.30
2019-03-10T00:33:28.765Z,2.30
2019-03-10T00:34:28.713Z,2.40
2019-03-10T00:35:28.662Z,2.40
2019-03-10T00:36:28.626Z,2.20
2019-03-10T00:37:28.552Z,2.20
2019-03-10T00:38:28.481Z,2.20
2019-03-10T00:39:28.438Z,2.30
2019-03-10T00:40:28.384Z,2.30
2019-03-10T00:41:28.353Z,2.50
2019-03-10T00:42:28.275Z,2.20
2019-03-10T00:43:28.213Z,2.60
2019-03-10T00:44:28.169Z,2.20
2019-03-10T00:45:28.114Z,2.20
2019-03-10T00:46:28.075Z,2.30
2019-03-10T00:47:28.007Z,2.10
2019-03-10T00:48:27.957Z,2.40
2019-03-10T00:49:27.899Z,2.90
2019-03-10T00:50:27.837Z,2.10
2019-03-10T00:51:27.800Z,2.80
2019-03-10T00:52:27.728Z,2.30
2019-03-10T00:53:27.661Z,2.50
2019-03-10T00:54:27.604Z,2.40
2019-03-10T00:55:27.554Z,2.30
2019-03-10T00:56:27.533Z,2.50
2019-03-10T00:57:27.449Z,2.20
2019-03-10T00:58:27.391Z,3.00
2019-03-10T00:59:27.350Z,2.20
2019-03-10T01:00:27.287Z,2.20
2019-03-10T01:01:27.278Z,2.20
2019-03-10T01:02:27.168Z,2.40
2019-03-10T01:03:27.117Z,2.30
2019-03-10T01:04:27.056Z,2.10
2019-03-10T01:05:26.996Z,2.70
2019-03-10T01:06:26.968Z,2.30
2019-03-10T01:07:26.892Z,2.60
2019-03-10T01:08:26.844Z,2.30
2019-03-10T01:09:26.803Z,2.30
2019-03-10T01:10:26.724Z,2.00
2019-03-10T01:11:26.695Z,2.20
2019-03-10T01:12:26.617Z,2.40
2019-03-10T01:13:26.568Z,2.20
2019-03-10T01:14:26.511Z,2.30
2019-03-10T01:15:26.450Z,2.00
2019-03-10T01:16:26.437Z,2.30
2019-03-10T01:17:26.342Z,2.50
2019-03-10T01:18:26.297Z,2.50
2019-03-10T01:19:26.232Z,2.30
2019-03-10T01:20:26.173Z,2.10
2019-03-10T01:21:26.154Z,2.30
2019-03-10T01:22:26.060Z,2.90
2019-03-10T01:23:26.015Z,2.30
2019-03-10T01:24:25.960Z,2.30
2019-03-10T01:25:25.897Z,2.20
2019-03-10T01:26:25.881Z,2.30
2019-03-10T01:27:25.801Z,2.20
2019-03-10T01:28:25.747Z,2.30
2019-03-10T01:29:25.685Z,2.30
2019-03-10T01:30:25.627Z,2.60
2019-03-10T01:31:25.591Z,2.50
2019-03-10T01:32:25.520Z,2.60
2019-03-10T01:33:25.463Z,2.40
2019-03-10T01:34:25.421Z,2.40
2019-03-10T01:35:25.358Z,2.50
2019-03-10T01:36:25.346Z,2.50
2019-03-10T01:37:25.260Z,2.50
2019-03-10T01:38:25.188Z,1.90
2019-03-10T01:39:25.135Z,2.10
2019-03-10T01:40:25.104Z,2.10
2019-03-10T01:41:25.049Z,2.50
2019-03-10T01:42:24.977Z,2.10
2019-03-10T01:43:24.911Z,2.40
2019-03-10T01:44:24.865Z,2.20
2019-03-10T01:45:24.812Z,1.90
2019-03-10T01:46:24.789Z,2.20
2019-03-10T01:47:24.690Z,2.20
2019-03-10T01:48:24.650Z,1.90
2019-03-10T01:49:24.592Z,2.50
2019-03-10T01:50:24.539Z,2.50
2019-03-10T01:51:24.478Z,2.30
2019-03-10T01:52:24.458Z,2.10
2019-03-10T01:53:25.796Z,2.60
2019-03-10T01:54:24.394Z,2.60
2019-03-10T01:55:24.258Z,2.60
2019-03-10T01:56:24.212Z,2.40
2019-03-10T01:57:24.166Z,2.30
2019-03-10T01:58:24.091Z,2.50
2019-03-10T01:59:24.031Z,2.00
2019-03-10T02:00:23.991Z,2.70
2019-03-10T02:01:23.960Z,2.20
2019-03-10T02:02:25.904Z,1.80
2019-03-10T02:03:23.817Z,2.60
2019-03-10T02:04:23.773Z,2.30
2019-03-10T02:05:23.718Z,2.40
2019-03-10T02:06:23.722Z,2.30
2019-03-10T02:07:23.633Z,2.20
2019-03-10T02:08:23.547Z,2.40
2019-03-10T02:09:23.490Z,2.60
2019-03-10T02:10:23.447Z,2.30
2019-03-10T02:11:23.378Z,2.50
2019-03-10T02:12:23.347Z,2.30
2019-03-10T02:13:23.274Z,2.10
2019-03-10T02:14:23.228Z,2.40
2019-03-10T02:15:23.170Z,2.50
2019-03-10T02:16:23.117Z,2.30
2019-03-10T02:17:23.085Z,2.30
2019-03-10T02:18:23.011Z,2.60
2019-03-10T02:19:22.949Z,2.00
2019-03-10T02:20:22.903Z,2.60
2019-03-10T02:21:22.836Z,2.30
2019-03-10T02:22:22.812Z,2.30
2019-03-10T02:23:22.720Z,2.30
2019-03-10T02:24:24.023Z,2.20
2019-03-10T02:25:22.616Z,2.40
2019-03-10T02:26:22.564Z,2.30
2019-03-10T02:27:22.528Z,2.30
2019-03-10T02:28:22.441Z,2.20
2019-03-10T02:29:22.426Z,2.90
2019-03-10T02:30:22.346Z,2.50
2019-03-10T02:31:22.302Z,2.60
2019-03-10T02:32:22.260Z,2.60
2019-03-10T02:33:22.175Z,2.60
2019-03-10T02:34:22.122Z,2.50
2019-03-10T02:35:22.074Z,2.60
2019-03-10T02:36:22.017Z,2.90
2019-03-10T02:37:22.006Z,3.30
2019-03-10T02:38:21.911Z,2.90
2019-03-10T02:39:21.858Z,2.30
2019-03-10T02:40:21.793Z,2.70
2019-03-10T02:41:21.728Z,3.10
2019-03-10T02:42:21.824Z,3.00
2019-03-10T02:43:21.637Z,2.40
2019-03-10T02:44:21.573Z,2.70
2019-03-10T02:45:21.531Z,2.70
2019-03-10T02:46:21.469Z,2.80
2019-03-10T02:47:21.445Z,2.70
2019-03-10T02:48:21.363Z,2.60
2019-03-10T02:49:21.306Z,2.40
2019-03-10T02:50:21.256Z,2.60
2019-03-10T02:51:21.194Z,2.90
2019-03-10T02:52:21.160Z,2.70
2019-03-10T02:53:21.076Z,2.90
2019-03-10T02:54:21.022Z,2.60
2019-03-10T02:55:20.978Z,2.80
2019-03-10T02:56:20.922Z,2.80
2019-03-10T02:57:20.898Z,3.10
2019-03-10T02:58:20.817Z,2.80
2019-03-10T02:59:20.771Z,2.70
2019-03-10T03:00:20.694Z,2.90
2019-03-10T03:01:20.651Z,2.90
2019-03-10T03:02:20.609Z,2.80
2019-03-10T03:03:20.547Z,2.70
2019-03-10T03:04:20.486Z,2.70
2019-03-10T03:05:20.448Z,2.30
2019-03-10T03:06:20.372Z,2.60
2019-03-10T03:07:20.367Z,2.70
2019-03-10T03:08:20.267Z,2.70
2019-03-10T03:09:20.208Z,2.80
2019-03-10T03:10:20.153Z,2.90
2019-03-10T03:11:20.095Z,2.70
2019-03-10T03:12:20.039Z,2.40
2019-03-10T03:13:20.013Z,2.80
2019-03-10T03:14:19.943Z,2.90
2019-03-10T03:15:19.889Z,3.00
2019-03-10T03:16:19.823Z,3.40
2019-03-10T03:17:19.765Z,2.90
2019-03-10T03:18:19.738Z,2.90
2019-03-10T03:19:19.659Z,2.80
2019-03-10T03:20:19.605Z,3.00
2019-03-10T03:21:19.549Z,2.90
2019-03-10T03:22:19.496Z,2.70
2019-03-10T03:23:19.462Z,3.10
2019-03-10T03:24:19.383Z,2.80
2019-03-10T03:25:19.329Z,3.00
2019-03-10T03:26:19.286Z,2.70
2019-03-10T03:27:19.224Z,2.90
2019-03-10T03:28:19.205Z,3.40
2019-03-10T03:29:19.108Z,2.90
2019-03-10T03:30:19.058Z,2.80
2019-03-10T03:31:19.013Z,2.80
2019-03-10T03:32:18.948Z,2.80
2019-03-10T03:33:18.974Z,3.10
2019-03-10T03:34:18.833Z,3.30
2019-03-10T03:35:18.788Z,3.10
2019-03-10T03:36:18.730Z,2.80
2019-03-10T03:37:18.687Z,3.00
2019-03-10T03:38:18.649Z,3.00
2019-03-10T03:39:18.561Z,3.30
2019-03-10T03:40:18.513Z,2.70
2019-03-10T03:41:18.455Z,3.00
2019-03-10T03:42:18.399Z,3.10
2019-03-10T03:43:18.376Z,3.00
2019-03-10T03:44:18.282Z,2.90
2019-03-10T03:45:18.235Z,3.00
2019-03-10T03:46:18.176Z,3.20
2019-03-10T03:47:18.120Z,3.10
2019-03-10T03:48:18.089Z,2.90
2019-03-10T03:49:18.017Z,2.90
2019-03-10T03:50:17.963Z,3.70
2019-03-10T03:51:17.899Z,2.70
2019-03-10T03:52:17.857Z,2.90
2019-03-10T03:53:17.838Z,3.30
2019-03-10T03:54:17.742Z,3.20
2019-03-10T03:55:17.686Z,3.30
2019-03-10T03:56:17.632Z,2.80
2019-03-10T03:57:17.583Z,2.80
2019-03-10T03:58:17.548Z,3.30
2019-03-10T03:59:17.467Z,2.90
2019-03-10T04:00:17.413Z,3.00
2019-03-10T04:01:17.356Z,3.00
2019-03-10T04:02:17.315Z,3.30
2019-03-10T04:03:17.279Z,2.60
2019-03-10T04:04:17.200Z,2.50
2019-03-10T04:05:17.145Z,2.80
2019-03-10T04:06:17.080Z,2.70
2019-03-10T04:07:17.021Z,2.50
2019-03-10T04:08:17.013Z,2.40
2019-03-10T04:09:16.954Z,2.70
2019-03-10T04:10:16.862Z,2.60
2019-03-10T04:11:16.810Z,2.50
2019-03-10T04:12:16.756Z,2.20
2019-03-10T04:13:16.697Z,2.50
2019-03-10T04:14:16.723Z,2.20
2019-03-10T04:15:16.594Z,2.60
2019-03-10T04:16:16.539Z,2.40
2019-03-10T04:17:16.474Z,2.40
2019-03-10T04:18:16.430Z,2.00
2019-03-10T04:19:16.390Z,2.90
2019-03-10T04:20:16.313Z,2.40
2019-03-10T04:21:16.254Z,2.20
2019-03-10T04:22:16.214Z,2.40
2019-03-10T04:23:16.157Z,2.50
2019-03-10T04:24:16.125Z,2.40
2019-03-10T04:25:16.034Z,2.20
2019-03-10T04:26:15.982Z,2.40
2019-03-10T04:27:15.934Z,2.20
2019-03-10T04:28:15.883Z,2.10
2019-03-10T04:29:15.847Z,2.20
2019-03-10T04:30:15.764Z,2.10
2019-03-10T04:31:15.724Z,2.20
2019-03-10T04:32:15.670Z,1.90
2019-03-10T04:33:15.600Z,2.20
2019-03-10T04:34:15.571Z,2.10
2019-03-10T04:35:15.490Z,1.90
2019-03-10T04:36:15.441Z,2.60
2019-03-10T04:37:15.382Z,1.90
2019-03-10T04:38:15.332Z,2.10
2019-03-10T04:39:15.303Z,2.30
2019-03-10T04:40:15.212Z,2.40
2019-03-10T04:41:15.160Z,2.20
2019-03-10T04:42:15.108Z,2.20
2019-03-10T04:43:15.061Z,2.10
2019-03-10T04:44:15.020Z,2.20
2019-03-10T04:45:14.958Z,2.90
2019-03-10T04:46:14.887Z,2.40
2019-03-10T04:47:14.829Z,2.30
2019-03-10T04:48:14.774Z,2.60
2019-03-10T04:49:14.751Z,2.60
2019-03-10T04:50:16.343Z,2.30
2019-03-10T04:51:14.605Z,2.70
2019-03-10T04:52:14.555Z,2.30
2019-03-10T04:53:14.507Z,2.50
2019-03-10T04:54:14.465Z,2.80
2019-03-10T04:55:14.384Z,2.60
2019-03-10T04:56:14.336Z,2.10
2019-03-10T04:57:14.283Z,3.20
2019-03-10T04:58:14.230Z,2.40
2019-03-10T04:59:14.191Z,2.20
2019-03-10T05:00:14.118Z,3.20
2019-03-10T05:01:14.062Z,2.80
2019-03-10T05:02:14.002Z,2.90
2019-03-10T05:03:13.949Z,2.60
2019-03-10T05:04:13.918Z,2.40
2019-03-10T05:05:13.839Z,2.70
2019-03-10T05:06:13.788Z,3.00
2019-03-10T05:07:13.726Z,2.60
2019-03-10T05:08:13.676Z,2.90
2019-03-10T05:09:13.666Z,3.10
2019-03-10T05:10:13.573Z,2.60
2019-03-10T05:11:13.509Z,3.20
2019-03-10T05:12:13.453Z,3.40
2019-03-10T05:13:13.397Z,3.00
2019-03-10T05:14:13.342Z,3.30
2019-03-10T05:15:13.365Z,3.50
2019-03-10T05:16:13.235Z,3.10
2019-03-10T05:17:13.185Z,3.10
2019-03-10T05:18:13.125Z,3.30
2019-03-10T05:19:13.068Z,3.50
2019-03-10T05:20:13.031Z,3.40
2019-03-10T05:21:12.959Z,3.80
2019-03-10T05:22:12.898Z,4.00
2019-03-10T05:23:12.845Z,3.80
2019-03-10T05:24:12.790Z,4.30
2019-03-10T05:25:12.761Z,3.80
2019-03-10T05:26:12.744Z,3.60
2019-03-10T05:27:12.623Z,3.60
2019-03-10T05:28:12.568Z,4.00
2019-03-10T05:29:12.516Z,4.10
2019-03-10T05:30:12.487Z,4.20
2019-03-10T05:31:12.406Z,3.90
2019-03-10T05:32:12.354Z,4.40
2019-03-10T05:33:12.292Z,3.70
2019-03-10T05:34:12.235Z,4.50
2019-03-10T05:35:12.213Z,3.90
2019-03-10T05:36:12.120Z,3.50
2019-03-10T05:37:12.082Z,4.40
2019-03-10T05:38:12.019Z,3.60
2019-03-10T05:39:11.963Z,4.00
2019-03-10T05:40:11.938Z,4.30
2019-03-10T05:41:11.859Z,4.10
2019-03-10T05:42:11.805Z,3.60
2019-03-10T05:43:11.745Z,3.90
2019-03-10T05:44:11.690Z,3.90
2019-03-10T05:45:11.668Z,3.90
2019-03-10T05:46:11.578Z,4.10
2019-03-10T05:47:11.531Z,4.20
2019-03-10T05:48:11.471Z,3.90
2019-03-10T05:49:11.421Z,4.50
2019-03-10T05:50:11.385Z,4.30
2019-03-10T05:51:11.300Z,3.60
2019-03-10T05:52:11.277Z,4.20
2019-03-10T05:53:11.190Z,4.50
2019-03-10T05:54:11.130Z,4.20
2019-03-10T05:55:11.159Z,4.00
2019-03-10T05:56:11.054Z,4.40
2019-03-10T05:57:10.966Z,4.20
2019-03-10T05:58:10.974Z,3.90
2019-03-10T05:59:10.875Z,4.00
2019-03-10T06:00:10.854Z,4.20
2019-03-10T06:01:10.818Z,3.90
2019-03-10T06:02:10.734Z,3.90
2019-03-10T06:03:10.646Z,4.50
2019-03-10T06:04:10.598Z,4.20
2019-03-10T06:05:10.563Z,3.80
2019-03-10T06:06:10.538Z,4.80
2019-03-10T06:07:10.427Z,4.20
2019-03-10T06:08:10.365Z,4.80
2019-03-10T06:09:10.310Z,4.90
2019-03-10T06:10:10.294Z,4.80
2019-03-10T06:11:10.200Z,4.80
2019-03-10T06:12:10.140Z,3.90
2019-03-10T06:13:10.096Z,4.30
2019-03-10T06:14:10.058Z,4.40
2019-03-10T06:15:09.994Z,3.80
2019-03-10T06:16:09.945Z,4.10
2019-03-10T06:17:09.867Z,4.30
2019-03-10T06:18:13.892Z,4.30
2019-03-10T06:19:09.781Z,4.30
2019-03-10T06:20:09.720Z,4.20
2019-03-10T06:21:09.667Z,4.40
2019-03-10T06:22:09.633Z,4.60
2019-03-10T06:23:09.566Z,4.70
2019-03-10T06:24:09.613Z,4.30
2019-03-10T06:25:09.433Z,4.50
2019-03-10T06:26:09.432Z,4.40
2019-03-10T06:27:09.349Z,4.30
2019-03-10T06:28:09.296Z,4.10
2019-03-10T06:29:09.201Z,4.10
2019-03-10T06:30:09.158Z,4.10
2019-03-10T06:31:09.144Z,4.40
2019-03-10T06:32:09.048Z,4.70
2019-03-10T06:33:08.981Z,4.80
2019-03-10T06:34:08.931Z,4.70
2019-03-10T06:35:08.871Z,4.70
2019-03-10T06:36:08.841Z,4.50
2019-03-10T06:37:08.757Z,5.00
2019-03-10T06:38:08.706Z,4.60
2019-03-10T06:39:08.657Z,4.70
2019-03-10T06:40:08.591Z,4.90
2019-03-10T06:41:08.573Z,5.10
2019-03-10T06:42:08.486Z,5.20
2019-03-10T06:43:08.439Z,5.40
2019-03-10T06:44:08.378Z,5.50
2019-03-10T06:45:08.331Z,5.90
2019-03-10T06:46:08.291Z,5.10
2019-03-10T06:47:08.210Z,5.70
2019-03-10T06:48:08.149Z,5.50
2019-03-10T06:49:08.131Z,5.40
2019-03-10T06:50:08.048Z,5.40
2019-03-10T06:51:08.015Z,5.70
2019-03-10T06:52:07.940Z,5.60
2019-03-10T06:53:07.879Z,5.80
2019-03-10T06:54:07.819Z,5.20
2019-03-10T06:55:07.773Z,5.70
2019-03-10T06:56:07.734Z,6.00
2019-03-10T06:57:07.673Z,5.50
2019-03-10T06:58:07.612Z,5.70
2019-03-10T06:59:07.546Z,5.60
2019-03-10T07:00:07.505Z,5.70
2019-03-10T07:01:07.477Z,5.10
2019-03-10T07:02:07.380Z,5.30
2019-03-10T07:03:07.365Z,5.90
2019-03-10T07:04:07.279Z,5.70
2019-03-10T07:05:07.225Z,5.70
2019-03-10T07:06:07.243Z,5.80
2019-03-10T07:07:07.136Z,5.90
2019-03-10T07:08:07.061Z,6.30
2019-03-10T07:09:07.000Z,5.90
2019-03-10T07:10:06.937Z,5.80
2019-03-10T07:11:06.883Z,5.70
2019-03-10T07:12:06.876Z,6.10
2019-03-10T07:13:06.783Z,6.20
2019-03-10T07:14:06.731Z,5.80
2019-03-10T07:15:06.668Z,6.10
2019-03-10T07:16:06.607Z,5.90
2019-03-10T07:17:06.594Z,6.70
2019-03-10T07:18:06.531Z,6.10
2019-03-10T07:19:06.450Z,6.10
2019-03-10T07:20:06.388Z,5.90
2019-03-10T07:21:06.328Z,5.30
2019-03-10T07:22:06.358Z,5.80
2019-03-10T07:23:06.272Z,6.40
2019-03-10T07:24:06.174Z,6.00
2019-03-10T07:25:06.111Z,5.90
2019-03-10T07:26:06.054Z,5.90
2019-03-10T07:27:06.025Z,5.70
2019-03-10T07:28:05.955Z,5.80
2019-03-10T07:29:05.929Z,6.00
2019-03-10T07:30:05.846Z,5.40
2019-03-10T07:31:05.790Z,6.00
2019-03-10T07:32:05.788Z,5.50
2019-03-10T07:33:05.677Z,5.40
2019-03-10T07:34:05.613Z,5.50
2019-03-10T07:35:05.565Z,5.20
2019-03-10T07:36:05.516Z,5.00
2019-03-10T07:37:05.481Z,4.90
2019-03-10T07:38:05.386Z,4.50
2019-03-10T07:39:05.367Z,4.70
2019-03-10T07:40:05.289Z,4.80
2019-03-10T07:41:05.235Z,4.20
2019-03-10T07:42:05.213Z,4.50
2019-03-10T07:43:05.118Z,4.20
2019-03-10T07:44:05.103Z,4.70
2019-03-10T07:45:05.014Z,4.30
2019-03-10T07:46:04.959Z,4.20
2019-03-10T07:47:05.020Z,4.40
2019-03-10T07:48:04.858Z,4.20
2019-03-10T07:49:04.790Z,4.50
2019-03-10T07:50:04.739Z,4.70
2019-03-10T07:51:04.678Z,5.00
2019-03-10T07:52:04.641Z,4.90
2019-03-10T07:53:04.571Z,4.80
2019-03-10T07:54:04.505Z,5.30
2019-03-10T07:55:04.455Z,5.60
2019-03-10T07:56:04.406Z,5.00
2019-03-10T07:57:04.375Z,5.40
2019-03-10T07:58:04.273Z,5.60
2019-03-10T07:59:04.230Z,5.40
2019-03-10T08:00:04.185Z,5.60
2019-03-10T08:01:04.144Z,5.30
2019-03-10T08:02:04.086Z,5.70
2019-03-10T08:03:04.015Z,5.60
2019-03-10T08:04:03.955Z,5.70
2019-03-10T08:05:03.909Z,6.30
2019-03-10T08:06:03.845Z,5.60
2019-03-10T08:07:03.823Z,5.80
2019-03-10T08:08:03.742Z,5.20
2019-03-10T08:09:03.680Z,6.10
2019-03-10T08:10:03.627Z,6.40
2019-03-10T08:11:03.583Z,6.20
2019-03-10T08:12:03.500Z,6.60
2019-03-10T08:13:03.484Z,6.70
2019-03-10T08:14:03.406Z,7.20
2019-03-10T08:15:03.345Z,6.90
2019-03-10T08:16:03.313Z,7.20
2019-03-10T08:17:03.229Z,6.80
2019-03-10T08:18:03.194Z,7.00
2019-03-10T08:19:03.122Z,7.60
2019-03-10T08:20:03.099Z,7.20
2019-03-10T08:21:03.001Z,7.10
2019-03-10T08:22:02.952Z,7.40
2019-03-10T08:23:02.936Z,7.10
2019-03-10T08:24:02.846Z,7.00
2019-03-10T08:25:02.826Z,6.70
2019-03-10T08:26:02.736Z,6.70
2019-03-10T08:27:02.676Z,7.10
2019-03-10T08:28:02.647Z,6.70
2019-03-10T08:29:02.575Z,6.40
2019-03-10T08:30:02.526Z,6.70
2019-03-10T08:31:02.458Z,6.50
2019-03-10T08:32:02.413Z,6.70
2019-03-10T08:33:02.396Z,6.20
2019-03-10T08:34:02.315Z,6.30
2019-03-10T08:35:02.240Z,6.40
2019-03-10T08:36:02.190Z,6.40
2019-03-10T08:37:02.129Z,6.50
2019-03-10T08:38:02.107Z,6.20
2019-03-10T08:39:02.030Z,6.40
2019-03-10T08:40:01.977Z,6.50
2019-03-10T08:41:01.915Z,6.60
2019-03-10T08:42:01.877Z,6.30
2019-03-10T08:43:01.847Z,5.80
2019-03-10T08:44:01.750Z,6.50
2019-03-10T08:45:01.687Z,5.90
2019-03-10T08:46:01.630Z,6.00
2019-03-10T08:47:01.622Z,6.10
2019-03-10T08:48:01.576Z,6.20
2019-03-10T08:49:01.464Z,5.40
2019-03-10T08:50:01.416Z,6.00
2019-03-10T08:51:01.371Z,5.90
2019-03-10T08:52:01.310Z,5.90
2019-03-10T08:53:01.255Z,6.00
2019-03-10T08:54:01.298Z,5.80
2019-03-10T08:55:01.144Z,5.90
2019-03-10T08:56:01.087Z,5.70
2019-03-10T08:57:01.041Z,5.60
2019-03-10T08:58:00.961Z,6.00
2019-03-10T08:59:00.959Z,6.20
2019-03-10T09:00:00.868Z,6.60
2019-03-10T09:01:00.867Z,5.70
2019-03-10T09:02:00.764Z,5.80
2019-03-10T09:03:00.744Z,6.10
2019-03-10T09:04:00.677Z,6.20
2019-03-10T09:05:00.611Z,6.20
2019-03-10T09:06:00.682Z,6.00
2019-03-10T09:07:00.492Z,5.90
2019-03-10T09:08:00.426Z,5.60
2019-03-10T09:09:00.400Z,5.70
2019-03-10T09:10:00.355Z,5.50
2019-03-10T09:11:00.266Z,5.20
2019-03-10T09:12:00.411Z,5.40
2019-03-10T09:13:00.159Z,5.10
2019-03-10T09:14:00.135Z,5.40
2019-03-10T09:15:00.169Z,5.20
2019-03-10T09:15:59.983Z,5.40
2019-03-10T09:16:59.958Z,5.40
2019-03-10T09:17:59.886Z,5.10
2019-03-10T09:18:59.860Z,5.10
2019-03-10T09:19:59.783Z,5.10
2019-03-10T09:20:59.711Z,4.90
2019-03-10T09:22:00.337Z,5.40
2019-03-10T09:22:59.619Z,5.30
2019-03-10T09:23:59.588Z,5.30
2019-03-10T09:24:59.510Z,5.30
2019-03-10T09:25:59.470Z,5.50
2019-03-10T09:26:59.405Z,5.40
2019-03-10T09:27:59.351Z,5.20
2019-03-10T09:28:59.304Z,5.00
2019-03-10T09:29:59.237Z,5.00
2019-03-10T09:30:59.183Z,5.00
2019-03-10T09:31:59.121Z,5.20
2019-03-10T09:32:59.068Z,5.20
2019-03-10T09:33:59.067Z,5.10
2019-03-10T09:34:58.942Z,5.00
2019-03-10T09:35:58.896Z,5.10
2019-03-10T09:36:58.850Z,4.70
2019-03-10T09:37:58.809Z,5.10
2019-03-10T09:38:58.727Z,5.00
2019-03-10T09:39:58.717Z,4.80
2019-03-10T09:40:58.641Z,4.60
2019-03-10T09:41:58.599Z,4.50
2019-03-10T09:42:58.539Z,4.50
2019-03-10T09:43:58.464Z,4.80
2019-03-10T09:44:58.451Z,5.10
2019-03-10T09:45:58.352Z,5.00
2019-03-10T09:46:58.303Z,4.50
2019-03-10T09:47:58.313Z,4.70
2019-03-10T09:48:58.208Z,4.40
2019-03-10T09:49:58.176Z,4.50
2019-03-10T09:50:58.083Z,4.80
2019-03-10T09:51:58.031Z,5.20
2019-03-10T09:52:57.993Z,4.70
2019-03-10T09:53:57.922Z,4.40
2019-03-10T09:54:57.912Z,4.60
2019-03-10T09:55:57.800Z,4.70
2019-03-10T09:56:57.763Z,4.70
2019-03-10T09:57:57.694Z,4.70
2019-03-10T09:58:57.639Z,4.80
2019-03-10T09:59:57.621Z,4.70
2019-03-10T10:00:57.537Z,4.80
2019-03-10T10:01:57.478Z,4.90
2019-03-10T10:02:57.445Z,4.70
2019-03-10T10:03:57.385Z,5.00
2019-03-10T10:04:57.360Z,5.10
2019-03-10T10:05:57.257Z,4.70
2019-03-10T10:06:57.260Z,5.20
2019-03-10T10:07:57.223Z,5.20
2019-03-10T10:08:57.206Z,5.30
2019-03-10T10:09:57.072Z,5.40
2019-03-10T10:10:56.993Z,5.70
2019-03-10T10:11:56.930Z,5.10
2019-03-10T10:12:56.891Z,5.60
2019-03-10T10:13:57.027Z,5.00
2019-03-10T10:14:56.821Z,5.30
2019-03-10T10:15:56.722Z,5.30
2019-03-10T10:16:56.663Z,5.40
2019-03-10T10:17:56.679Z,5.40
2019-03-10T10:18:56.557Z,5.10
2019-03-10T10:19:56.545Z,4.90
2019-03-10T10:20:56.453Z,4.90
2019-03-10T10:21:56.419Z,4.60
2019-03-10T10:22:56.339Z,4.00
2019-03-10T10:23:56.312Z,4.20
2019-03-10T10:24:56.282Z,4.40
2019-03-10T10:25:56.414Z,4.40
2019-03-10T10:26:56.140Z,4.50
2019-03-10T10:27:56.083Z,4.60
2019-03-10T10:28:56.017Z,4.30
2019-03-10T10:29:55.953Z,4.70
2019-03-10T10:30:55.939Z,4.80
2019-03-10T10:31:55.864Z,4.70
2019-03-10T10:32:55.894Z,4.60
2019-03-10T10:33:55.764Z,4.70
2019-03-10T10:34:55.678Z,4.60
2019-03-10T10:35:55.647Z,4.40
2019-03-10T10:36:55.578Z,4.40
2019-03-10T10:37:55.517Z,4.30
2019-03-10T10:38:55.504Z,3.80
2019-03-10T10:39:55.417Z,3.50
2019-03-10T10:40:55.392Z,3.60
2019-03-10T10:41:55.331Z,3.40
2019-03-10T10:42:55.266Z,3.30
2019-03-10T10:43:55.226Z,3.40
2019-03-10T10:44:55.143Z,3.50
2019-03-10T10:45:55.146Z,3.70
2019-03-10T10:46:55.064Z,3.70
2019-03-10T10:47:54.977Z,3.80
2019-03-10T10:48:54.960Z,3.90
2019-03-10T10:49:54.871Z,3.70
2019-03-10T10:50:54.873Z,3.90
2019-03-10T10:51:54.799Z,3.60
2019-03-10T10:52:54.726Z,3.90
2019-03-10T10:53:54.692Z,3.80
2019-03-10T10:54:54.617Z,4.00
2019-03-10T10:55:54.606Z,4.10
2019-03-10T10:56:54.532Z,3.90
2019-03-10T10:57:54.463Z,4.10
2019-03-10T10:58:54.386Z,4.10
2019-03-10T10:59:54.367Z,4.00
2019-03-10T11:00:54.337Z,4.00
2019-03-10T11:01:54.231Z,4.00
2019-03-10T11:02:54.192Z,3.30
2019-03-10T11:03:54.161Z,3.00
2019-03-10T11:04:54.070Z,3.20
2019-03-10T11:05:54.049Z,3.10
2019-03-10T11:06:53.948Z,3.00
2019-03-10T11:07:53.895Z,2.80
2019-03-10T11:08:53.849Z,2.90
2019-03-10T11:09:53.782Z,3.00
2019-03-10T11:10:53.772Z,2.60
2019-03-10T11:11:53.672Z,2.60
2019-03-10T11:12:53.647Z,2.60
2019-03-10T11:13:53.556Z,2.60
2019-03-10T11:14:53.756Z,2.60
2019-03-10T11:15:53.823Z,2.50
2019-03-10T11:16:53.406Z,2.60
2019-03-10T11:17:53.342Z,2.80
2019-03-10T11:18:53.311Z,2.70
2019-03-10T11:19:53.253Z,2.60
2019-03-10T11:20:53.258Z,2.40
2019-03-10T11:21:53.152Z,2.70
2019-03-10T11:22:53.082Z,2.60
2019-03-10T11:23:53.033Z,2.30
2019-03-10T11:24:52.972Z,2.40
2019-03-10T11:25:52.911Z,2.10
2019-03-10T11:26:52.905Z,1.60
2019-03-10T11:27:52.822Z,1.80
2019-03-10T11:28:52.750Z,1.70
2019-03-10T11:29:52.718Z,1.90
2019-03-10T11:30:52.638Z,1.80
2019-03-10T11:31:52.602Z,1.80
2019-03-10T11:32:52.601Z,1.90
2019-03-10T11:33:52.506Z,2.00
2019-03-10T11:34:52.418Z,2.00
2019-03-10T11:35:53.538Z,2.00
2019-03-10T11:36:52.365Z,2.00
2019-03-10T11:37:52.263Z,2.30
2019-03-10T11:38:52.234Z,2.00
2019-03-10T11:39:52.149Z,1.90
2019-03-10T11:40:52.093Z,1.80
2019-03-10T11:41:52.083Z,2.10
2019-03-10T11:42:52.040Z,2.00
2019-03-10T11:43:51.948Z,1.90
2019-03-10T11:44:51.887Z,1.90
2019-03-10T11:45:51.825Z,2.00
2019-03-10T11:46:51.787Z,2.40
2019-03-10T11:47:51.727Z,2.30
2019-03-10T11:48:51.668Z,2.10
2019-03-10T11:49:51.601Z,2.00
2019-03-10T11:50:51.554Z,2.00
2019-03-10T11:51:51.524Z,2.10
2019-03-10T11:52:51.460Z,2.20
2019-03-10T11:53:51.403Z,2.50
2019-03-10T11:54:51.348Z,2.30
2019-03-10T11:55:51.279Z,2.10
2019-03-10T11:56:51.299Z,2.00
2019-03-10T11:57:51.198Z,2.20
2019-03-10T11:58:51.127Z,2.10
2019-03-10T11:59:51.087Z,2.50
2019-03-10T12:00:51.002Z,2.30
2019-03-10T12:01:50.969Z,2.40
2019-03-10T12:02:50.904Z,2.20
2019-03-10T12:03:50.836Z,2.70
2019-03-10T12:04:50.804Z,2.70
2019-03-10T12:05:50.751Z,2.50
2019-03-10T12:06:50.702Z,3.00
2019-03-10T12:07:50.668Z,2.70
2019-03-10T12:08:50.578Z,2.70
2019-03-10T12:09:50.531Z,2.70
2019-03-10T12:10:50.462Z,2.60
2019-03-10T12:11:50.476Z,2.50
2019-03-10T12:12:50.343Z,2.70
2019-03-10T12:13:50.299Z,2.70
2019-03-10T12:14:50.258Z,2.60
2019-03-10T12:15:50.203Z,2.60
2019-03-10T12:16:50.167Z,2.50
2019-03-10T12:17:50.135Z,2.60
2019-03-10T12:18:50.046Z,3.10
2019-03-10T12:19:49.980Z,3.10
2019-03-10T12:20:50.005Z,3.00
2019-03-10T12:21:49.897Z,2.80
2019-03-10T12:22:49.839Z,3.50
2019-03-10T12:23:49.769Z,3.20
2019-03-10T12:24:49.732Z,3.30
2019-03-10T12:25:49.671Z,3.70
2019-03-10T12:26:49.620Z,3.40
2019-03-10T12:27:49.536Z,3.70
2019-03-10T12:28:49.487Z,3.80
2019-03-10T12:29:49.422Z,4.00
2019-03-10T12:30:49.398Z,3.90
2019-03-10T12:31:49.374Z,4.20
2019-03-10T12:32:49.283Z,4.20
2019-03-10T12:33:49.280Z,3.50
2019-03-10T12:34:49.177Z,3.50
2019-03-10T12:35:49.138Z,4.00
2019-03-10T12:36:49.241Z,3.70
2019-03-10T12:37:49.010Z,3.80
2019-03-10T12:38:48.965Z,3.70
2019-03-10T12:39:48.883Z,3.40
2019-03-10T12:40:48.840Z,3.40
2019-03-10T12:41:58.111Z,3.50
2019-03-10T12:42:48.768Z,3.50
2019-03-10T12:43:48.675Z,3.40
2019-03-10T12:44:48.647Z,3.40
2019-03-10T12:45:48.567Z,3.50
2019-03-10T12:46:48.519Z,3.20
2019-03-10T12:47:48.492Z,3.10
2019-03-10T12:48:48.407Z,3.10
2019-03-10T12:49:48.355Z,3.20
2019-03-10T12:50:48.303Z,3.30
2019-03-10T12:51:48.240Z,3.20
2019-03-10T12:52:48.249Z,2.90
2019-03-10T12:53:48.142Z,3.00
2019-03-10T12:54:48.070Z,3.10
2019-03-10T12:55:48.027Z,3.50
2019-03-10T12:56:47.985Z,3.20
2019-03-10T12:57:47.941Z,3.20
2019-03-10T12:58:47.868Z,3.10
2019-03-10T12:59:47.882Z,3.10
2019-03-10T13:00:47.762Z,3.60
2019-03-10T13:01:47.741Z,3.90
2019-03-10T13:02:47.663Z,4.60
2019-03-10T13:03:58.089Z,5.00
2019-03-10T13:04:47.533Z,4.80
2019-03-10T13:05:47.500Z,5.30
2019-03-10T13:06:47.425Z,4.20
2019-03-10T13:07:47.402Z,4.50
2019-03-10T13:08:47.315Z,3.90
2019-03-10T13:09:47.276Z,3.90
2019-03-10T13:10:47.247Z,3.90
2019-03-10T13:11:47.165Z,4.30
2019-03-10T13:12:47.122Z,4.00
2019-03-10T13:13:47.045Z,3.80
2019-03-10T13:14:47.002Z,4.20
2019-03-10T13:15:46.979Z,4.20
2019-03-10T13:16:46.917Z,4.40
2019-03-10T13:22:59.677Z,3.10